sensor_id;sensor_type;location;lat;lon;timestamp;P1;durP1;ratioP1;P2;durP2;ratioP2
13171;SDS011;6651;53.200;10.432;2023-08-07T00:02:05;5.63;;;3.80;;
13171;SDS011;6651;53.200;10.432;2023-08-07T00:04:31;6.40;;;3.90;;
13171;SDS011;6651;53.200;10.432;2023-08-07T00:06:57;7.28;;;4.22;;
13171;SDS011;6651;53.200;10.432;2023-08-07T00:09:23;6.55;;;3.78;;
13171;SDS011;6651;53.200;10.432;2023-08-07T00:11:49;5.50;;;3.85;;
13171;SDS011;6651;53.200;10.432;2023-08-07T00:14:14;7.90;;;4.10;;
13171;SDS011;6651;53.200;10.432;2023-08-07T00:16:41;5.97;;;3.88;;
13171;SDS011;6651;53.200;10.432;2023-08-07T00:19:06;5.75;;;4.20;;
13171;SDS011;6651;53.200;10.432;2023-08-07T00:21:32;6.82;;;4.10;;
13171;SDS011;6651;53.200;10.432;2023-08-07T00:24:00;6.53;;;4.30;;
13171;SDS011;6651;53.200;10.432;2023-08-07T00:26:26;6.70;;;4.50;;
13171;SDS011;6651;53.200;10.432;2023-08-07T00:28:52;6.20;;;4.10;;
13171;SDS011;6651;53.200;10.432;2023-08-07T00:31:17;5.78;;;4.10;;
13171;SDS011;6651;53.200;10.432;2023-08-07T00:33:43;7.35;;;4.20;;
13171;SDS011;6651;53.200;10.432;2023-08-07T00:36:08;7.00;;;4.05;;
13171;SDS011;6651;53.200;10.432;2023-08-07T00:38:34;6.15;;;4.00;;
13171;SDS011;6651;53.200;10.432;2023-08-07T00:41:00;7.65;;;4.05;;
13171;SDS011;6651;53.200;10.432;2023-08-07T00:43:25;5.65;;;3.78;;
13171;SDS011;6651;53.200;10.432;2023-08-07T00:45:51;5.28;;;4.00;;
13171;SDS011;6651;53.200;10.432;2023-08-07T00:48:17;5.88;;;4.13;;
13171;SDS011;6651;53.200;10.432;2023-08-07T00:50:42;5.65;;;4.03;;
13171;SDS011;6651;53.200;10.432;2023-08-07T00:53:11;5.43;;;3.72;;
13171;SDS011;6651;53.200;10.432;2023-08-07T00:55:36;7.57;;;3.80;;
13171;SDS011;6651;53.200;10.432;2023-08-07T00:58:02;5.88;;;3.42;;
13171;SDS011;6651;53.200;10.432;2023-08-07T01:00:28;7.80;;;3.78;;
13171;SDS011;6651;53.200;10.432;2023-08-07T01:02:55;5.50;;;3.50;;
13171;SDS011;6651;53.200;10.432;2023-08-07T01:05:22;6.53;;;4.10;;
13171;SDS011;6651;53.200;10.432;2023-08-07T01:07:51;7.00;;;3.97;;
13171;SDS011;6651;53.200;10.432;2023-08-07T01:10:20;4.32;;;3.70;;
13171;SDS011;6651;53.200;10.432;2023-08-07T01:13:04;7.38;;;4.18;;
13171;SDS011;6651;53.200;10.432;2023-08-07T01:15:41;7.80;;;3.78;;
13171;SDS011;6651;53.200;10.432;2023-08-07T01:18:07;4.75;;;3.80;;
13171;SDS011;6651;53.200;10.432;2023-08-07T01:20:33;5.90;;;3.33;;
13171;SDS011;6651;53.200;10.432;2023-08-07T01:22:58;5.45;;;3.70;;
13171;SDS011;6651;53.200;10.432;2023-08-07T01:25:24;4.13;;;3.38;;
13171;SDS011;6651;53.200;10.432;2023-08-07T01:28:25;4.90;;;4.00;;
13171;SDS011;6651;53.200;10.432;2023-08-07T01:31:03;7.63;;;4.32;;
13171;SDS011;6651;53.200;10.432;2023-08-07T01:33:47;6.43;;;3.88;;
13171;SDS011;6651;53.200;10.432;2023-08-07T01:36:19;6.45;;;3.78;;
13171;SDS011;6651;53.200;10.432;2023-08-07T01:38:47;8.38;;;4.10;;
13171;SDS011;6651;53.200;10.432;2023-08-07T01:41:15;6.45;;;3.60;;
13171;SDS011;6651;53.200;10.432;2023-08-07T01:43:41;5.07;;;3.35;;
13171;SDS011;6651;53.200;10.432;2023-08-07T01:46:07;6.85;;;3.70;;
13171;SDS011;6651;53.200;10.432;2023-08-07T01:48:32;4.18;;;3.40;;
13171;SDS011;6651;53.200;10.432;2023-08-07T01:50:58;5.88;;;3.70;;
13171;SDS011;6651;53.200;10.432;2023-08-07T01:53:24;5.03;;;3.42;;
13171;SDS011;6651;53.200;10.432;2023-08-07T01:55:49;6.53;;;3.55;;
13171;SDS011;6651;53.200;10.432;2023-08-07T01:58:15;4.88;;;3.60;;
13171;SDS011;6651;53.200;10.432;2023-08-07T02:00:40;7.05;;;3.63;;
13171;SDS011;6651;53.200;10.432;2023-08-07T02:03:06;3.78;;;2.97;;
13171;SDS011;6651;53.200;10.432;2023-08-07T02:05:32;5.72;;;3.50;;
13171;SDS011;6651;53.200;10.432;2023-08-07T02:07:57;5.65;;;3.60;;
13171;SDS011;6651;53.200;10.432;2023-08-07T02:10:23;6.28;;;3.70;;
13171;SDS011;6651;53.200;10.432;2023-08-07T02:12:53;7.82;;;3.60;;
13171;SDS011;6651;53.200;10.432;2023-08-07T02:15:18;8.43;;;3.17;;
13171;SDS011;6651;53.200;10.432;2023-08-07T02:17:44;4.38;;;3.30;;
13171;SDS011;6651;53.200;10.432;2023-08-07T02:20:10;4.20;;;3.47;;
13171;SDS011;6651;53.200;10.432;2023-08-07T02:22:36;5.68;;;3.50;;
13171;SDS011;6651;53.200;10.432;2023-08-07T02:25:01;5.60;;;3.42;;
13171;SDS011;6651;53.200;10.432;2023-08-07T02:27:27;6.70;;;3.50;;
13171;SDS011;6651;53.200;10.432;2023-08-07T02:29:53;5.53;;;3.22;;
13171;SDS011;6651;53.200;10.432;2023-08-07T02:32:19;6.70;;;3.30;;
13171;SDS011;6651;53.200;10.432;2023-08-07T02:34:45;5.80;;;3.10;;
13171;SDS011;6651;53.200;10.432;2023-08-07T02:37:11;4.78;;;3.30;;
13171;SDS011;6651;53.200;10.432;2023-08-07T02:39:36;4.72;;;3.30;;
13171;SDS011;6651;53.200;10.432;2023-08-07T02:42:02;6.13;;;3.40;;
13171;SDS011;6651;53.200;10.432;2023-08-07T02:44:28;5.20;;;3.97;;
13171;SDS011;6651;53.200;10.432;2023-08-07T02:46:53;5.80;;;3.40;;
13171;SDS011;6651;53.200;10.432;2023-08-07T02:49:19;5.90;;;3.20;;
13171;SDS011;6651;53.200;10.432;2023-08-07T02:51:45;7.30;;;3.88;;
13171;SDS011;6651;53.200;10.432;2023-08-07T02:54:11;6.05;;;3.75;;
13171;SDS011;6651;53.200;10.432;2023-08-07T02:56:36;5.45;;;3.45;;
13171;SDS011;6651;53.200;10.432;2023-08-07T02:59:02;6.50;;;3.60;;
13171;SDS011;6651;53.200;10.432;2023-08-07T03:01:28;8.02;;;3.55;;
13171;SDS011;6651;53.200;10.432;2023-08-07T03:03:54;7.55;;;3.42;;
13171;SDS011;6651;53.200;10.432;2023-08-07T03:06:19;4.63;;;3.50;;
13171;SDS011;6651;53.200;10.432;2023-08-07T03:08:45;6.38;;;3.30;;
13171;SDS011;6651;53.200;10.432;2023-08-07T03:11:11;5.35;;;3.28;;
13171;SDS011;6651;53.200;10.432;2023-08-07T03:13:36;6.30;;;3.05;;
13171;SDS011;6651;53.200;10.432;2023-08-07T03:16:02;5.55;;;3.00;;
13171;SDS011;6651;53.200;10.432;2023-08-07T03:18:29;5.60;;;3.30;;
13171;SDS011;6651;53.200;10.432;2023-08-07T03:20:56;4.78;;;3.20;;
13171;SDS011;6651;53.200;10.432;2023-08-07T03:23:23;4.18;;;3.28;;
13171;SDS011;6651;53.200;10.432;2023-08-07T03:25:49;5.75;;;3.50;;
13171;SDS011;6651;53.200;10.432;2023-08-07T03:28:15;4.63;;;2.78;;
13171;SDS011;6651;53.200;10.432;2023-08-07T03:30:41;5.78;;;2.90;;
13171;SDS011;6651;53.200;10.432;2023-08-07T03:33:07;4.93;;;2.70;;
13171;SDS011;6651;53.200;10.432;2023-08-07T03:35:33;4.13;;;3.03;;
13171;SDS011;6651;53.200;10.432;2023-08-07T03:37:58;6.07;;;2.97;;
13171;SDS011;6651;53.200;10.432;2023-08-07T03:40:24;4.82;;;2.97;;
13171;SDS011;6651;53.200;10.432;2023-08-07T03:42:50;7.00;;;3.17;;
13171;SDS011;6651;53.200;10.432;2023-08-07T03:45:15;5.10;;;3.28;;
13171;SDS011;6651;53.200;10.432;2023-08-07T03:47:41;7.45;;;3.50;;
13171;SDS011;6651;53.200;10.432;2023-08-07T03:50:06;5.88;;;3.22;;
13171;SDS011;6651;53.200;10.432;2023-08-07T03:52:32;4.95;;;2.97;;
13171;SDS011;6651;53.200;10.432;2023-08-07T03:54:58;6.10;;;3.35;;
13171;SDS011;6651;53.200;10.432;2023-08-07T03:57:23;5.95;;;3.35;;
13171;SDS011;6651;53.200;10.432;2023-08-07T03:59:49;6.60;;;3.13;;
13171;SDS011;6651;53.200;10.432;2023-08-07T04:02:15;4.90;;;2.95;;
13171;SDS011;6651;53.200;10.432;2023-08-07T04:04:41;6.05;;;2.92;;
13171;SDS011;6651;53.200;10.432;2023-08-07T04:07:06;7.28;;;3.00;;
13171;SDS011;6651;53.200;10.432;2023-08-07T04:09:32;5.70;;;2.95;;
13171;SDS011;6651;53.200;10.432;2023-08-07T04:11:58;5.28;;;3.30;;
13171;SDS011;6651;53.200;10.432;2023-08-07T04:14:24;4.63;;;3.05;;
13171;SDS011;6651;53.200;10.432;2023-08-07T04:16:49;7.20;;;2.80;;
13171;SDS011;6651;53.200;10.432;2023-08-07T04:19:19;4.43;;;2.85;;
13171;SDS011;6651;53.200;10.432;2023-08-07T04:21:44;8.05;;;3.10;;
13171;SDS011;6651;53.200;10.432;2023-08-07T04:24:10;5.40;;;2.60;;
13171;SDS011;6651;53.200;10.432;2023-08-07T04:26:36;7.30;;;3.15;;
13171;SDS011;6651;53.200;10.432;2023-08-07T04:29:03;5.15;;;3.15;;
13171;SDS011;6651;53.200;10.432;2023-08-07T04:31:29;5.47;;;2.88;;
13171;SDS011;6651;53.200;10.432;2023-08-07T04:33:58;7.00;;;3.08;;
13171;SDS011;6651;53.200;10.432;2023-08-07T04:36:24;5.65;;;2.70;;
13171;SDS011;6651;53.200;10.432;2023-08-07T04:38:50;3.90;;;2.60;;
13171;SDS011;6651;53.200;10.432;2023-08-07T04:41:18;4.72;;;2.78;;
13171;SDS011;6651;53.200;10.432;2023-08-07T04:43:44;4.80;;;2.50;;
13171;SDS011;6651;53.200;10.432;2023-08-07T04:46:10;5.38;;;2.90;;
13171;SDS011;6651;53.200;10.432;2023-08-07T04:48:37;6.90;;;2.53;;
13171;SDS011;6651;53.200;10.432;2023-08-07T04:51:02;6.05;;;2.90;;
13171;SDS011;6651;53.200;10.432;2023-08-07T04:53:28;4.88;;;2.97;;
13171;SDS011;6651;53.200;10.432;2023-08-07T04:55:54;5.18;;;3.03;;
13171;SDS011;6651;53.200;10.432;2023-08-07T04:58:19;6.75;;;3.00;;
13171;SDS011;6651;53.200;10.432;2023-08-07T05:00:45;4.80;;;2.80;;
13171;SDS011;6651;53.200;10.432;2023-08-07T05:03:11;4.53;;;3.13;;
13171;SDS011;6651;53.200;10.432;2023-08-07T05:05:37;5.18;;;2.83;;
13171;SDS011;6651;53.200;10.432;2023-08-07T05:08:02;3.53;;;2.45;;
13171;SDS011;6651;53.200;10.432;2023-08-07T05:10:28;4.70;;;2.92;;
13171;SDS011;6651;53.200;10.432;2023-08-07T05:12:54;4.45;;;2.75;;
13171;SDS011;6651;53.200;10.432;2023-08-07T05:15:23;5.22;;;2.90;;
13171;SDS011;6651;53.200;10.432;2023-08-07T05:17:49;5.85;;;3.10;;
13171;SDS011;6651;53.200;10.432;2023-08-07T05:20:16;4.13;;;2.92;;
13171;SDS011;6651;53.200;10.432;2023-08-07T05:22:42;5.50;;;2.90;;
13171;SDS011;6651;53.200;10.432;2023-08-07T05:25:08;6.90;;;3.17;;
13171;SDS011;6651;53.200;10.432;2023-08-07T05:27:34;5.25;;;2.80;;
13171;SDS011;6651;53.200;10.432;2023-08-07T05:30:00;5.35;;;2.97;;
13171;SDS011;6651;53.200;10.432;2023-08-07T05:32:26;5.55;;;2.92;;
13171;SDS011;6651;53.200;10.432;2023-08-07T05:34:53;5.30;;;2.95;;
13171;SDS011;6651;53.200;10.432;2023-08-07T05:37:18;5.93;;;2.85;;
13171;SDS011;6651;53.200;10.432;2023-08-07T05:39:44;3.97;;;2.92;;
13171;SDS011;6651;53.200;10.432;2023-08-07T05:42:10;4.78;;;2.92;;
13171;SDS011;6651;53.200;10.432;2023-08-07T05:44:37;4.72;;;2.90;;
13171;SDS011;6651;53.200;10.432;2023-08-07T05:47:03;4.90;;;2.97;;
13171;SDS011;6651;53.200;10.432;2023-08-07T05:49:29;4.43;;;2.80;;
13171;SDS011;6651;53.200;10.432;2023-08-07T05:51:54;5.07;;;2.88;;
13171;SDS011;6651;53.200;10.432;2023-08-07T05:54:20;6.15;;;2.90;;
13171;SDS011;6651;53.200;10.432;2023-08-07T05:56:46;4.70;;;2.60;;
13171;SDS011;6651;53.200;10.432;2023-08-07T05:59:12;4.15;;;2.60;;
13171;SDS011;6651;53.200;10.432;2023-08-07T06:01:37;3.45;;;2.67;;
13171;SDS011;6651;53.200;10.432;2023-08-07T06:04:03;5.22;;;3.10;;
13171;SDS011;6651;53.200;10.432;2023-08-07T06:06:29;6.97;;;2.90;;
13171;SDS011;6651;53.200;10.432;2023-08-07T06:08:55;6.05;;;2.75;;
13171;SDS011;6651;53.200;10.432;2023-08-07T06:11:20;3.47;;;2.33;;
13171;SDS011;6651;53.200;10.432;2023-08-07T06:13:46;5.95;;;3.05;;
13171;SDS011;6651;53.200;10.432;2023-08-07T06:16:12;6.20;;;2.47;;
13171;SDS011;6651;53.200;10.432;2023-08-07T06:18:38;6.78;;;3.10;;
13171;SDS011;6651;53.200;10.432;2023-08-07T06:21:03;7.35;;;2.95;;
13171;SDS011;6651;53.200;10.432;2023-08-07T06:23:32;5.10;;;2.65;;
13171;SDS011;6651;53.200;10.432;2023-08-07T06:25:58;8.07;;;2.92;;
13171;SDS011;6651;53.200;10.432;2023-08-07T06:28:24;7.43;;;2.47;;
13171;SDS011;6651;53.200;10.432;2023-08-07T06:30:50;5.85;;;3.03;;
13171;SDS011;6651;53.200;10.432;2023-08-07T06:33:15;7.63;;;3.05;;
13171;SDS011;6651;53.200;10.432;2023-08-07T06:35:41;6.80;;;2.90;;
13171;SDS011;6651;53.200;10.432;2023-08-07T06:38:07;5.05;;;2.50;;
13171;SDS011;6651;53.200;10.432;2023-08-07T06:40:36;4.72;;;2.60;;
13171;SDS011;6651;53.200;10.432;2023-08-07T06:43:03;5.68;;;2.60;;
13171;SDS011;6651;53.200;10.432;2023-08-07T06:45:28;6.40;;;2.60;;
13171;SDS011;6651;53.200;10.432;2023-08-07T06:47:54;5.88;;;2.60;;
13171;SDS011;6651;53.200;10.432;2023-08-07T06:50:21;6.00;;;2.60;;
13171;SDS011;6651;53.200;10.432;2023-08-07T06:52:46;8.27;;;3.05;;
13171;SDS011;6651;53.200;10.432;2023-08-07T06:55:12;9.20;;;3.20;;
13171;SDS011;6651;53.200;10.432;2023-08-07T06:57:38;8.70;;;3.10;;
13171;SDS011;6651;53.200;10.432;2023-08-07T07:00:05;6.47;;;2.97;;
13171;SDS011;6651;53.200;10.432;2023-08-07T07:02:31;5.72;;;2.75;;
13171;SDS011;6651;53.200;10.432;2023-08-07T07:04:57;8.95;;;2.90;;
13171;SDS011;6651;53.200;10.432;2023-08-07T07:07:22;7.35;;;2.90;;
13171;SDS011;6651;53.200;10.432;2023-08-07T07:09:48;7.13;;;2.67;;
13171;SDS011;6651;53.200;10.432;2023-08-07T07:12:14;4.63;;;2.88;;
13171;SDS011;6651;53.200;10.432;2023-08-07T07:14:39;7.20;;;2.42;;
13171;SDS011;6651;53.200;10.432;2023-08-07T07:17:05;7.25;;;2.70;;
13171;SDS011;6651;53.200;10.432;2023-08-07T07:19:31;8.25;;;3.00;;
13171;SDS011;6651;53.200;10.432;2023-08-07T07:21:56;6.70;;;2.80;;
13171;SDS011;6651;53.200;10.432;2023-08-07T07:24:22;6.80;;;2.92;;
13171;SDS011;6651;53.200;10.432;2023-08-07T07:26:48;11.80;;;3.35;;
13171;SDS011;6651;53.200;10.432;2023-08-07T07:29:13;10.02;;;3.10;;
13171;SDS011;6651;53.200;10.432;2023-08-07T07:31:39;8.50;;;3.00;;
13171;SDS011;6651;53.200;10.432;2023-08-07T07:34:04;10.35;;;3.25;;
13171;SDS011;6651;53.200;10.432;2023-08-07T07:36:30;10.02;;;3.05;;
13171;SDS011;6651;53.200;10.432;2023-08-07T07:38:55;8.85;;;3.00;;
13171;SDS011;6651;53.200;10.432;2023-08-07T07:41:21;9.75;;;3.17;;
13171;SDS011;6651;53.200;10.432;2023-08-07T07:43:47;7.85;;;2.90;;
13171;SDS011;6651;53.200;10.432;2023-08-07T07:46:13;12.43;;;3.10;;
13171;SDS011;6651;53.200;10.432;2023-08-07T07:48:38;10.60;;;3.17;;
13171;SDS011;6651;53.200;10.432;2023-08-07T07:51:04;10.73;;;2.97;;
13171;SDS011;6651;53.200;10.432;2023-08-07T07:53:30;8.18;;;2.95;;
13171;SDS011;6651;53.200;10.432;2023-08-07T07:55:56;10.32;;;3.58;;
13171;SDS011;6651;53.200;10.432;2023-08-07T07:58:22;11.85;;;3.53;;
13171;SDS011;6651;53.200;10.432;2023-08-07T08:00:48;7.85;;;3.42;;
13171;SDS011;6651;53.200;10.432;2023-08-07T08:03:13;9.43;;;3.33;;
13171;SDS011;6651;53.200;10.432;2023-08-07T08:05:39;9.48;;;3.70;;
13171;SDS011;6651;53.200;10.432;2023-08-07T08:08:05;11.77;;;3.78;;
13171;SDS011;6651;53.200;10.432;2023-08-07T08:10:32;11.43;;;3.40;;
13171;SDS011;6651;53.200;10.432;2023-08-07T08:12:59;13.93;;;4.35;;
13171;SDS011;6651;53.200;10.432;2023-08-07T08:15:25;12.32;;;3.50;;
13171;SDS011;6651;53.200;10.432;2023-08-07T08:17:50;11.25;;;4.00;;
13171;SDS011;6651;53.200;10.432;2023-08-07T08:20:16;8.77;;;3.70;;
13171;SDS011;6651;53.200;10.432;2023-08-07T08:22:44;11.82;;;3.38;;
13171;SDS011;6651;53.200;10.432;2023-08-07T08:25:10;9.98;;;3.65;;
13171;SDS011;6651;53.200;10.432;2023-08-07T08:27:36;9.52;;;3.33;;
13171;SDS011;6651;53.200;10.432;2023-08-07T08:30:05;10.35;;;3.42;;
13171;SDS011;6651;53.200;10.432;2023-08-07T08:32:31;9.23;;;3.38;;
13171;SDS011;6651;53.200;10.432;2023-08-07T08:34:57;9.95;;;3.47;;
13171;SDS011;6651;53.200;10.432;2023-08-07T08:37:23;14.02;;;3.63;;
13171;SDS011;6651;53.200;10.432;2023-08-07T08:39:49;10.70;;;3.55;;
13171;SDS011;6651;53.200;10.432;2023-08-07T08:42:15;10.25;;;3.47;;
13171;SDS011;6651;53.200;10.432;2023-08-07T08:44:45;11.73;;;3.65;;
13171;SDS011;6651;53.200;10.432;2023-08-07T08:47:14;11.30;;;3.92;;
13171;SDS011;6651;53.200;10.432;2023-08-07T08:49:49;8.52;;;3.42;;
13171;SDS011;6651;53.200;10.432;2023-08-07T08:52:19;11.10;;;3.40;;
13171;SDS011;6651;53.200;10.432;2023-08-07T08:54:46;15.23;;;3.92;;
13171;SDS011;6651;53.200;10.432;2023-08-07T08:57:13;9.60;;;3.67;;
13171;SDS011;6651;53.200;10.432;2023-08-07T08:59:42;11.50;;;3.72;;
13171;SDS011;6651;53.200;10.432;2023-08-07T09:02:08;9.55;;;3.60;;
13171;SDS011;6651;53.200;10.432;2023-08-07T09:04:33;10.32;;;3.58;;
13171;SDS011;6651;53.200;10.432;2023-08-07T09:07:00;11.90;;;3.75;;
13171;SDS011;6651;53.200;10.432;2023-08-07T09:09:26;9.35;;;3.47;;
13171;SDS011;6651;53.200;10.432;2023-08-07T09:11:53;11.25;;;3.45;;
13171;SDS011;6651;53.200;10.432;2023-08-07T09:14:22;10.27;;;3.80;;
13171;SDS011;6651;53.200;10.432;2023-08-07T09:16:49;11.02;;;3.72;;
13171;SDS011;6651;53.200;10.432;2023-08-07T09:19:15;12.32;;;4.28;;
13171;SDS011;6651;53.200;10.432;2023-08-07T09:21:41;10.75;;;3.60;;
13171;SDS011;6651;53.200;10.432;2023-08-07T09:24:06;11.15;;;3.80;;
13171;SDS011;6651;53.200;10.432;2023-08-07T09:26:32;12.05;;;3.88;;
13171;SDS011;6651;53.200;10.432;2023-08-07T09:29:02;9.82;;;3.70;;
13171;SDS011;6651;53.200;10.432;2023-08-07T09:31:28;13.02;;;3.97;;
13171;SDS011;6651;53.200;10.432;2023-08-07T09:33:58;11.10;;;3.63;;
13171;SDS011;6651;53.200;10.432;2023-08-07T09:36:26;7.65;;;3.47;;
13171;SDS011;6651;53.200;10.432;2023-08-07T09:38:54;11.63;;;3.72;;
13171;SDS011;6651;53.200;10.432;2023-08-07T09:41:20;10.95;;;3.45;;
13171;SDS011;6651;53.200;10.432;2023-08-07T09:43:46;9.68;;;2.97;;
13171;SDS011;6651;53.200;10.432;2023-08-07T09:46:12;10.77;;;3.30;;
13171;SDS011;6651;53.200;10.432;2023-08-07T09:48:43;11.40;;;3.40;;
13171;SDS011;6651;53.200;10.432;2023-08-07T09:51:09;11.43;;;3.45;;
13171;SDS011;6651;53.200;10.432;2023-08-07T09:53:35;12.07;;;3.20;;
13171;SDS011;6651;53.200;10.432;2023-08-07T09:56:01;9.23;;;3.47;;
13171;SDS011;6651;53.200;10.432;2023-08-07T09:58:28;9.85;;;3.40;;
13171;SDS011;6651;53.200;10.432;2023-08-07T10:00:54;11.48;;;3.08;;
13171;SDS011;6651;53.200;10.432;2023-08-07T10:03:24;10.27;;;3.40;;
13171;SDS011;6651;53.200;10.432;2023-08-07T10:05:50;9.68;;;3.10;;
13171;SDS011;6651;53.200;10.432;2023-08-07T10:08:16;9.77;;;3.22;;
13171;SDS011;6651;53.200;10.432;2023-08-07T10:10:43;12.32;;;3.58;;
13171;SDS011;6651;53.200;10.432;2023-08-07T10:13:09;8.45;;;3.15;;
13171;SDS011;6651;53.200;10.432;2023-08-07T10:15:38;9.55;;;3.45;;
13171;SDS011;6651;53.200;10.432;2023-08-07T10:18:05;9.30;;;3.40;;
13171;SDS011;6651;53.200;10.432;2023-08-07T10:20:31;8.60;;;2.92;;
13171;SDS011;6651;53.200;10.432;2023-08-07T10:23:01;8.93;;;3.28;;
13171;SDS011;6651;53.200;10.432;2023-08-07T10:25:32;7.95;;;3.00;;
13171;SDS011;6651;53.200;10.432;2023-08-07T10:27:59;10.25;;;3.17;;
13171;SDS011;6651;53.200;10.432;2023-08-07T10:30:27;10.15;;;3.53;;
13171;SDS011;6651;53.200;10.432;2023-08-07T10:32:54;10.35;;;3.60;;
13171;SDS011;6651;53.200;10.432;2023-08-07T10:35:29;10.35;;;3.20;;
13171;SDS011;6651;53.200;10.432;2023-08-07T10:37:59;5.68;;;2.85;;
13171;SDS011;6651;53.200;10.432;2023-08-07T10:40:34;10.25;;;3.50;;
13171;SDS011;6651;53.200;10.432;2023-08-07T10:43:19;9.60;;;3.22;;
13171;SDS011;6651;53.200;10.432;2023-08-07T10:45:45;11.48;;;3.22;;
13171;SDS011;6651;53.200;10.432;2023-08-07T10:48:11;11.77;;;3.50;;
13171;SDS011;6651;53.200;10.432;2023-08-07T10:50:51;10.50;;;3.70;;
13171;SDS011;6651;53.200;10.432;2023-08-07T10:53:31;9.73;;;3.38;;
13171;SDS011;6651;53.200;10.432;2023-08-07T10:56:08;10.68;;;3.45;;
13171;SDS011;6651;53.200;10.432;2023-08-07T10:58:37;11.82;;;3.38;;
13171;SDS011;6651;53.200;10.432;2023-08-07T11:04:11;11.25;;;3.58;;
13171;SDS011;6651;53.200;10.432;2023-08-07T11:06:40;8.48;;;3.58;;
13171;SDS011;6651;53.200;10.432;2023-08-07T11:09:07;11.02;;;4.00;;
13171;SDS011;6651;53.200;10.432;2023-08-07T11:11:37;13.82;;;3.47;;
13171;SDS011;6651;53.200;10.432;2023-08-07T11:14:12;9.48;;;3.70;;
13171;SDS011;6651;53.200;10.432;2023-08-07T11:16:39;7.35;;;3.28;;
13171;SDS011;6651;53.200;10.432;2023-08-07T11:19:05;10.05;;;3.38;;
13171;SDS011;6651;53.200;10.432;2023-08-07T11:21:31;9.88;;;3.35;;
13171;SDS011;6651;53.200;10.432;2023-08-07T11:23:58;7.70;;;2.97;;
13171;SDS011;6651;53.200;10.432;2023-08-07T11:26:23;9.35;;;3.28;;
13171;SDS011;6651;53.200;10.432;2023-08-07T11:28:53;10.93;;;3.40;;
13171;SDS011;6651;53.200;10.432;2023-08-07T11:31:19;8.43;;;3.40;;
13171;SDS011;6651;53.200;10.432;2023-08-07T11:33:46;8.18;;;3.13;;
13171;SDS011;6651;53.200;10.432;2023-08-07T11:36:15;9.60;;;3.17;;
13171;SDS011;6651;53.200;10.432;2023-08-07T11:38:41;8.38;;;3.30;;
13171;SDS011;6651;53.200;10.432;2023-08-07T11:41:08;9.40;;;3.13;;
13171;SDS011;6651;53.200;10.432;2023-08-07T11:43:35;8.20;;;2.85;;
13171;SDS011;6651;53.200;10.432;2023-08-07T11:46:02;7.53;;;3.05;;
13171;SDS011;6651;53.200;10.432;2023-08-07T11:48:31;8.55;;;2.70;;
13171;SDS011;6651;53.200;10.432;2023-08-07T11:50:58;9.30;;;3.05;;
13171;SDS011;6651;53.200;10.432;2023-08-07T11:53:25;9.60;;;3.00;;
13171;SDS011;6651;53.200;10.432;2023-08-07T11:55:52;8.57;;;3.08;;
13171;SDS011;6651;53.200;10.432;2023-08-07T11:58:21;10.20;;;3.25;;
13171;SDS011;6651;53.200;10.432;2023-08-07T12:00:48;9.10;;;3.53;;
13171;SDS011;6651;53.200;10.432;2023-08-07T12:03:27;7.03;;;3.22;;
13171;SDS011;6651;53.200;10.432;2023-08-07T12:05:58;8.48;;;3.03;;
13171;SDS011;6651;53.200;10.432;2023-08-07T12:08:34;6.82;;;2.90;;
13171;SDS011;6651;53.200;10.432;2023-08-07T12:11:05;7.70;;;3.20;;
13171;SDS011;6651;53.200;10.432;2023-08-07T12:13:32;7.38;;;3.05;;
13171;SDS011;6651;53.200;10.432;2023-08-07T12:16:01;9.60;;;3.03;;
13171;SDS011;6651;53.200;10.432;2023-08-07T12:18:29;8.60;;;3.20;;
13171;SDS011;6651;53.200;10.432;2023-08-07T12:20:59;5.80;;;2.50;;
13171;SDS011;6651;53.200;10.432;2023-08-07T12:23:40;6.18;;;2.25;;
13171;SDS011;6651;53.200;10.432;2023-08-07T12:26:06;5.30;;;2.30;;
13171;SDS011;6651;53.200;10.432;2023-08-07T12:28:32;5.88;;;2.50;;
13171;SDS011;6651;53.200;10.432;2023-08-07T12:31:01;6.85;;;2.67;;
13171;SDS011;6651;53.200;10.432;2023-08-07T12:33:30;7.97;;;2.72;;
13171;SDS011;6651;53.200;10.432;2023-08-07T12:35:57;9.90;;;2.70;;
13171;SDS011;6651;53.200;10.432;2023-08-07T12:38:23;6.45;;;2.40;;
13171;SDS011;6651;53.200;10.432;2023-08-07T12:40:49;8.82;;;2.70;;
13171;SDS011;6651;53.200;10.432;2023-08-07T12:43:15;5.47;;;2.70;;
13171;SDS011;6651;53.200;10.432;2023-08-07T12:45:41;7.60;;;2.90;;
13171;SDS011;6651;53.200;10.432;2023-08-07T12:48:07;8.25;;;2.63;;
13171;SDS011;6651;53.200;10.432;2023-08-07T12:50:33;7.82;;;2.75;;
13171;SDS011;6651;53.200;10.432;2023-08-07T12:52:59;8.82;;;2.78;;
13171;SDS011;6651;53.200;10.432;2023-08-07T12:55:26;8.95;;;2.50;;
13171;SDS011;6651;53.200;10.432;2023-08-07T12:57:53;7.95;;;2.60;;
13171;SDS011;6651;53.200;10.432;2023-08-07T13:00:19;9.15;;;2.78;;
13171;SDS011;6651;53.200;10.432;2023-08-07T13:02:46;8.15;;;2.80;;
13171;SDS011;6651;53.200;10.432;2023-08-07T13:05:13;6.53;;;2.80;;
13171;SDS011;6651;53.200;10.432;2023-08-07T13:07:40;7.45;;;2.90;;
13171;SDS011;6651;53.200;10.432;2023-08-07T13:10:06;7.35;;;2.72;;
13171;SDS011;6651;53.200;10.432;2023-08-07T13:12:37;9.50;;;3.15;;
13171;SDS011;6651;53.200;10.432;2023-08-07T13:15:04;9.65;;;2.67;;
13171;SDS011;6651;53.200;10.432;2023-08-07T13:17:32;10.73;;;3.22;;
13171;SDS011;6651;53.200;10.432;2023-08-07T13:19:58;8.07;;;2.70;;
13171;SDS011;6651;53.200;10.432;2023-08-07T13:22:25;7.18;;;2.90;;
13171;SDS011;6651;53.200;10.432;2023-08-07T13:24:51;8.10;;;3.20;;
13171;SDS011;6651;53.200;10.432;2023-08-07T13:27:16;8.18;;;2.80;;
13171;SDS011;6651;53.200;10.432;2023-08-07T13:29:42;8.55;;;2.80;;
13171;SDS011;6651;53.200;10.432;2023-08-07T13:32:08;6.40;;;2.65;;
13171;SDS011;6651;53.200;10.432;2023-08-07T13:34:37;6.78;;;2.50;;
13171;SDS011;6651;53.200;10.432;2023-08-07T13:37:04;9.68;;;3.08;;
13171;SDS011;6651;53.200;10.432;2023-08-07T13:39:30;8.10;;;2.90;;
13171;SDS011;6651;53.200;10.432;2023-08-07T13:41:55;7.97;;;2.95;;
13171;SDS011;6651;53.200;10.432;2023-08-07T13:44:21;6.50;;;2.65;;
13171;SDS011;6651;53.200;10.432;2023-08-07T13:46:47;6.85;;;2.63;;
13171;SDS011;6651;53.200;10.432;2023-08-07T13:49:13;6.25;;;2.47;;
13171;SDS011;6651;53.200;10.432;2023-08-07T13:51:42;6.95;;;2.45;;
13171;SDS011;6651;53.200;10.432;2023-08-07T13:54:08;6.32;;;2.50;;
13171;SDS011;6651;53.200;10.432;2023-08-07T13:56:34;6.43;;;2.50;;
13171;SDS011;6651;53.200;10.432;2023-08-07T13:59:00;6.63;;;2.67;;
13171;SDS011;6651;53.200;10.432;2023-08-07T14:01:25;7.32;;;2.95;;
13171;SDS011;6651;53.200;10.432;2023-08-07T14:03:52;8.00;;;2.72;;
13171;SDS011;6651;53.200;10.432;2023-08-07T14:06:18;8.20;;;2.95;;
13171;SDS011;6651;53.200;10.432;2023-08-07T14:08:44;9.93;;;3.17;;
13171;SDS011;6651;53.200;10.432;2023-08-07T14:11:10;7.03;;;2.70;;
13171;SDS011;6651;53.200;10.432;2023-08-07T14:13:38;6.63;;;2.85;;
13171;SDS011;6651;53.200;10.432;2023-08-07T14:16:04;8.15;;;3.03;;
13171;SDS011;6651;53.200;10.432;2023-08-07T14:18:30;6.90;;;2.88;;
13171;SDS011;6651;53.200;10.432;2023-08-07T14:20:55;6.20;;;2.80;;
13171;SDS011;6651;53.200;10.432;2023-08-07T14:23:21;8.52;;;3.17;;
13171;SDS011;6651;53.200;10.432;2023-08-07T14:25:46;10.85;;;3.65;;
13171;SDS011;6651;53.200;10.432;2023-08-07T14:28:15;10.10;;;3.20;;
13171;SDS011;6651;53.200;10.432;2023-08-07T14:30:41;9.45;;;3.55;;
13171;SDS011;6651;53.200;10.432;2023-08-07T14:33:07;9.57;;;3.25;;
13171;SDS011;6651;53.200;10.432;2023-08-07T14:35:33;9.98;;;3.70;;
13171;SDS011;6651;53.200;10.432;2023-08-07T14:37:58;9.15;;;3.50;;
13171;SDS011;6651;53.200;10.432;2023-08-07T14:40:24;8.60;;;3.35;;
13171;SDS011;6651;53.200;10.432;2023-08-07T14:42:51;7.47;;;3.00;;
13171;SDS011;6651;53.200;10.432;2023-08-07T14:45:17;8.38;;;3.60;;
13171;SDS011;6651;53.200;10.432;2023-08-07T14:47:43;8.82;;;3.40;;